sensor_id;sensor_type;location;lat;lon;timestamp;pressure;altitude;pressure_sealevel;temperature
76009;BMP280;64700;52.130;21.270;2023-08-06T00:00:01;99428.09;;;24.58
76009;BMP280;64700;52.130;21.270;2023-08-06T00:02:27;99426.84;;;24.59
76009;BMP280;64700;52.130;21.270;2023-08-06T00:04:52;99428.34;;;24.60
76009;BMP280;64700;52.130;21.270;2023-08-06T00:07:17;99417.41;;;24.60
76009;BMP280;64700;52.130;21.270;2023-08-06T00:09:43;99419.59;;;24.61
76009;BMP280;64700;52.130;21.270;2023-08-06T00:12:08;99411.41;;;24.61
76009;BMP280;64700;52.130;21.270;2023-08-06T00:14:33;99403.72;;;24.60
76009;BMP280;64700;52.130;21.270;2023-08-06T00:16:58;99404.47;;;24.60
76009;BMP280;64700;52.130;21.270;2023-08-06T00:19:23;99399.00;;;24.60
76009;BMP280;64700;52.130;21.270;2023-08-06T00:21:48;99395.53;;;24.60
76009;BMP280;64700;52.130;21.270;2023-08-06T00:24:14;99404.47;;;24.60
76009;BMP280;64700;52.130;21.270;2023-08-06T00:26:39;99411.41;;;24.61
76009;BMP280;64700;52.130;21.270;2023-08-06T00:29:04;99411.41;;;24.61
76009;BMP280;64700;52.130;21.270;2023-08-06T00:31:29;99417.59;;;24.62
76009;BMP280;64700;52.130;21.270;2023-08-06T00:33:54;99407.94;;;24.61
76009;BMP280;64700;52.130;21.270;2023-08-06T00:36:20;99403.19;;;24.61
76009;BMP280;64700;52.130;21.270;2023-08-06T00:38:45;99411.94;;;24.60
76009;BMP280;64700;52.130;21.270;2023-08-06T00:41:10;99406.47;;;24.60
76009;BMP280;64700;52.130;21.270;2023-08-06T00:43:35;99406.47;;;24.60
76009;BMP280;64700;52.130;21.270;2023-08-06T00:46:00;99401.00;;;24.60
76009;BMP280;64700;52.130;21.270;2023-08-06T00:48:25;99405.72;;;24.59
76009;BMP280;64700;52.130;21.270;2023-08-06T00:50:51;99412.44;;;24.58
76009;BMP280;64700;52.130;21.270;2023-08-06T00:53:16;99406.97;;;24.58
76009;BMP280;64700;52.130;21.270;2023-08-06T00:55:43;99401.50;;;24.58
76009;BMP280;64700;52.130;21.270;2023-08-06T00:58:09;99388.59;;;24.59
76009;BMP280;64700;52.130;21.270;2023-08-06T01:00:34;99381.63;;;24.58
76009;BMP280;64700;52.130;21.270;2023-08-06T01:02:59;99377.44;;;24.57
76009;BMP280;64700;52.130;21.270;2023-08-06T01:05:25;99380.91;;;24.57
76009;BMP280;64700;52.130;21.270;2023-08-06T01:07:52;99370.69;;;24.58
76009;BMP280;64700;52.130;21.270;2023-08-06T01:15:35;99353.28;;;24.61
76009;BMP280;64700;52.130;21.270;2023-08-06T01:18:03;99350.56;;;24.61
76009;BMP280;64700;52.130;21.270;2023-08-06T01:20:29;99344.34;;;24.60
76009;BMP280;64700;52.130;21.270;2023-08-06T01:22:54;99326.47;;;24.59
76009;BMP280;64700;52.130;21.270;2023-08-06T01:25:19;99312.78;;;24.59
76009;BMP280;64700;52.130;21.270;2023-08-06T01:27:46;99301.88;;;24.59
76009;BMP280;64700;52.130;21.270;2023-08-06T01:30:13;99299.13;;;24.59
76009;BMP280;64700;52.130;21.270;2023-08-06T01:32:42;99295.66;;;24.59
76009;BMP280;64700;52.130;21.270;2023-08-06T01:35:08;99286.22;;;24.60
76009;BMP280;64700;52.130;21.270;2023-08-06T01:37:35;99274.53;;;24.59
76009;BMP280;64700;52.130;21.270;2023-08-06T01:40:01;99271.78;;;24.59
76009;BMP280;64700;52.130;21.270;2023-08-06T01:42:26;99249.19;;;24.59
76009;BMP280;64700;52.130;21.270;2023-08-06T01:44:51;99243.53;;;24.57
76009;BMP280;64700;52.130;21.270;2023-08-06T01:47:17;99238.06;;;24.57
76009;BMP280;64700;52.130;21.270;2023-08-06T01:49:42;99229.13;;;24.56
76009;BMP280;64700;52.130;21.270;2023-08-06T01:52:07;99226.38;;;24.56
76009;BMP280;64700;52.130;21.270;2023-08-06T01:54:32;99228.38;;;24.56
76009;BMP280;64700;52.130;21.270;2023-08-06T01:56:57;99222.41;;;24.57
76009;BMP280;64700;52.130;21.270;2023-08-06T01:59:23;99225.13;;;24.57
76009;BMP280;64700;52.130;21.270;2023-08-06T02:01:48;99219.44;;;24.55
76009;BMP280;64700;52.130;21.270;2023-08-06T02:04:14;99224.16;;;24.55
76009;BMP280;64700;52.130;21.270;2023-08-06T02:06:39;99218.94;;;24.57
76009;BMP280;64700;52.130;21.270;2023-08-06T02:09:04;99208.50;;;24.55
76009;BMP280;64700;52.130;21.270;2023-08-06T02:11:29;99203.03;;;24.55
76009;BMP280;64700;52.130;21.270;2023-08-06T02:13:54;99204.53;;;24.56
76009;BMP280;64700;52.130;21.270;2023-08-06T02:16:19;99203.28;;;24.57
76009;BMP280;64700;52.130;21.270;2023-08-06T02:18:45;99188.13;;;24.56
76009;BMP280;64700;52.130;21.270;2023-08-06T02:21:10;99188.13;;;24.56
76009;BMP280;64700;52.130;21.270;2023-08-06T02:23:35;99181.91;;;24.56
76009;BMP280;64700;52.130;21.270;2023-08-06T02:26:01;99179.19;;;24.56
76009;BMP280;64700;52.130;21.270;2023-08-06T02:28:26;99176.47;;;24.56
76009;BMP280;64700;52.130;21.270;2023-08-06T02:30:52;99174.25;;;24.54
76009;BMP280;64700;52.130;21.270;2023-08-06T02:33:17;99188.88;;;24.57
76009;BMP280;64700;52.130;21.270;2023-08-06T02:35:42;99184.16;;;24.57
76009;BMP280;64700;52.130;21.270;2023-08-06T02:38:07;99177.94;;;24.57
76009;BMP280;64700;52.130;21.270;2023-08-06T02:40:32;99173.72;;;24.56
76009;BMP280;64700;52.130;21.270;2023-08-06T02:42:58;99177.19;;;24.56
76009;BMP280;64700;52.130;21.270;2023-08-06T02:45:23;99178.44;;;24.55
76009;BMP280;64700;52.130;21.270;2023-08-06T02:47:48;99176.47;;;24.56
76009;BMP280;64700;52.130;21.270;2023-08-06T02:50:13;99167.53;;;24.55
76009;BMP280;64700;52.130;21.270;2023-08-06T02:52:38;99162.06;;;24.55
76009;BMP280;64700;52.130;21.270;2023-08-06T02:55:05;99153.84;;;24.55
76009;BMP280;64700;52.130;21.270;2023-08-06T02:57:30;99142.91;;;24.55
76009;BMP280;64700;52.130;21.270;2023-08-06T02:59:55;99139.69;;;24.57
76009;BMP280;64700;52.130;21.270;2023-08-06T03:02:21;99136.94;;;24.57
76009;BMP280;64700;52.130;21.270;2023-08-06T03:04:46;99136.94;;;24.57
76009;BMP280;64700;52.130;21.270;2023-08-06T03:07:11;99137.47;;;24.55
76009;BMP280;64700;52.130;21.270;2023-08-06T03:09:36;99131.25;;;24.55
76009;BMP280;64700;52.130;21.270;2023-08-06T03:12:01;99120.53;;;24.57
76009;BMP280;64700;52.130;21.270;2023-08-06T03:14:27;99121.28;;;24.57
76009;BMP280;64700;52.130;21.270;2023-08-06T03:16:52;99112.34;;;24.57
76009;BMP280;64700;52.130;21.270;2023-08-06T03:19:17;99103.41;;;24.56
76009;BMP280;64700;52.130;21.270;2023-08-06T03:21:42;99098.69;;;24.57
76009;BMP280;64700;52.130;21.270;2023-08-06T03:24:07;99102.16;;;24.57
76009;BMP280;64700;52.130;21.270;2023-08-06T03:26:32;99092.25;;;24.54
76009;BMP280;64700;52.130;21.270;2023-08-06T03:28:58;99078.59;;;24.54
76009;BMP280;64700;52.130;21.270;2023-08-06T03:31:23;99076.41;;;24.53
76009;BMP280;64700;52.130;21.270;2023-08-06T03:33:48;99069.47;;;24.52
76009;BMP280;64700;52.130;21.270;2023-08-06T03:36:13;99063.25;;;24.51
76009;BMP280;64700;52.130;21.270;2023-08-06T03:38:39;99059.78;;;24.51
76009;BMP280;64700;52.130;21.270;2023-08-06T03:41:05;99052.88;;;24.50
76009;BMP280;64700;52.130;21.270;2023-08-06T03:43:30;99051.06;;;24.52
76009;BMP280;64700;52.130;21.270;2023-08-06T03:45:55;99048.84;;;24.51
76009;BMP280;64700;52.130;21.270;2023-08-06T03:48:21;99048.16;;;24.50
76009;BMP280;64700;52.130;21.270;2023-08-06T03:50:46;99041.94;;;24.50
76009;BMP280;64700;52.130;21.270;2023-08-06T03:53:11;99035.75;;;24.49
76009;BMP280;64700;52.130;21.270;2023-08-06T03:55:36;99034.25;;;24.48
76009;BMP280;64700;52.130;21.270;2023-08-06T03:58:01;99028.78;;;24.48
76009;BMP280;64700;52.130;21.270;2023-08-06T04:00:27;99021.81;;;24.47
76009;BMP280;64700;52.130;21.270;2023-08-06T04:02:52;99023.34;;;24.48
76009;BMP280;64700;52.130;21.270;2023-08-06T04:05:18;99018.59;;;24.49
76009;BMP280;64700;52.130;21.270;2023-08-06T04:07:43;99006.94;;;24.48
76009;BMP280;64700;52.130;21.270;2023-08-06T04:10:08;99006.94;;;24.48
76009;BMP280;64700;52.130;21.270;2023-08-06T04:12:33;99009.66;;;24.48
76009;BMP280;64700;52.130;21.270;2023-08-06T04:15:01;98998.75;;;24.48
76009;BMP280;64700;52.130;21.270;2023-08-06T04:17:27;98987.28;;;24.50
76009;BMP280;64700;52.130;21.270;2023-08-06T04:19:53;98981.81;;;24.50
76009;BMP280;64700;52.130;21.270;2023-08-06T04:22:18;98988.75;;;24.51
76009;BMP280;64700;52.130;21.270;2023-08-06T04:24:44;98992.22;;;24.51
76009;BMP280;64700;52.130;21.270;2023-08-06T04:27:12;98981.28;;;24.51
76009;BMP280;64700;52.130;21.270;2023-08-06T04:29:38;98981.28;;;24.51
76009;BMP280;64700;52.130;21.270;2023-08-06T04:32:04;98973.09;;;24.51
76009;BMP280;64700;52.130;21.270;2023-08-06T04:34:30;98971.09;;;24.52
76009;BMP280;64700;52.130;21.270;2023-08-06T04:36:56;98968.34;;;24.52
76009;BMP280;64700;52.130;21.270;2023-08-06T04:39:21;98967.09;;;24.53
76009;BMP280;64700;52.130;21.270;2023-08-06T04:41:46;98966.34;;;24.52
76009;BMP280;64700;52.130;21.270;2023-08-06T04:44:11;98958.91;;;24.53
76009;BMP280;64700;52.130;21.270;2023-08-06T04:46:36;98954.91;;;24.54
76009;BMP280;64700;52.130;21.270;2023-08-06T04:49:01;98954.19;;;24.53
76009;BMP280;64700;52.130;21.270;2023-08-06T04:51:27;98944.69;;;24.54
76009;BMP280;64700;52.130;21.270;2023-08-06T04:53:52;98941.97;;;24.54
76009;BMP280;64700;52.130;21.270;2023-08-06T04:56:17;98946.16;;;24.55
76009;BMP280;64700;52.130;21.270;2023-08-06T04:58:42;98929.03;;;24.55
76009;BMP280;64700;52.130;21.270;2023-08-06T05:01:07;98932.50;;;24.55
76009;BMP280;64700;52.130;21.270;2023-08-06T05:03:32;98929.78;;;24.55
76009;BMP280;64700;52.130;21.270;2023-08-06T05:05:58;98924.31;;;24.55
76009;BMP280;64700;52.130;21.270;2023-08-06T05:08:23;98922.31;;;24.56
76009;BMP280;64700;52.130;21.270;2023-08-06T05:10:48;98919.59;;;24.56
76009;BMP280;64700;52.130;21.270;2023-08-06T05:13:13;98919.59;;;24.56
76009;BMP280;64700;52.130;21.270;2023-08-06T05:15:38;98910.13;;;24.57
76009;BMP280;64700;52.130;21.270;2023-08-06T05:18:07;98901.94;;;24.57
76009;BMP280;64700;52.130;21.270;2023-08-06T05:20:35;98899.19;;;24.57
76009;BMP280;64700;52.130;21.270;2023-08-06T05:23:00;98902.66;;;24.57
76009;BMP280;64700;52.130;21.270;2023-08-06T05:25:26;98900.63;;;24.58
76009;BMP280;64700;52.130;21.270;2023-08-06T05:27:51;98895.19;;;24.58
76009;BMP280;64700;52.130;21.270;2023-08-06T05:30:16;98895.19;;;24.58
76009;BMP280;64700;52.130;21.270;2023-08-06T05:32:41;98885.72;;;24.59
76009;BMP280;64700;52.130;21.270;2023-08-06T05:35:07;98878.78;;;24.58
76009;BMP280;64700;52.130;21.270;2023-08-06T05:37:32;98885.72;;;24.59
76009;BMP280;64700;52.130;21.270;2023-08-06T05:39:57;98885.72;;;24.59
76009;BMP280;64700;52.130;21.270;2023-08-06T05:42:22;98881.72;;;24.60
76009;BMP280;64700;52.130;21.270;2023-08-06T05:44:47;98875.53;;;24.59
76009;BMP280;64700;52.130;21.270;2023-08-06T05:47:13;98866.06;;;24.60
76009;BMP280;64700;52.130;21.270;2023-08-06T05:49:38;98879.72;;;24.60
76009;BMP280;64700;52.130;21.270;2023-08-06T05:52:03;98871.53;;;24.60
76009;BMP280;64700;52.130;21.270;2023-08-06T05:54:31;98866.81;;;24.61
76009;BMP280;64700;52.130;21.270;2023-08-06T05:56:56;98871.00;;;24.62
76009;BMP280;64700;52.130;21.270;2023-08-06T05:59:21;98870.50;;;24.63
76009;BMP280;64700;52.130;21.270;2023-08-06T06:01:46;98862.28;;;24.63
76009;BMP280;64700;52.130;21.270;2023-08-06T06:04:11;98860.31;;;24.64
76009;BMP280;64700;52.130;21.270;2023-08-06T06:06:37;98858.31;;;24.64
76009;BMP280;64700;52.130;21.270;2023-08-06T06:09:02;98856.28;;;24.65
76009;BMP280;64700;52.130;21.270;2023-08-06T06:11:27;98859.22;;;24.67
76009;BMP280;64700;52.130;21.270;2023-08-06T06:13:52;98853.03;;;24.66
76009;BMP280;64700;52.130;21.270;2023-08-06T06:16:17;98846.81;;;24.66
76009;BMP280;64700;52.130;21.270;2023-08-06T06:18:43;98852.28;;;24.66
76009;BMP280;64700;52.130;21.270;2023-08-06T06:21:09;98848.81;;;24.65
76009;BMP280;64700;52.130;21.270;2023-08-06T06:23:34;98851.03;;;24.67
76009;BMP280;64700;52.130;21.270;2023-08-06T06:25:59;98839.34;;;24.66
76009;BMP280;64700;52.130;21.270;2023-08-06T06:28:24;98839.34;;;24.66
76009;BMP280;64700;52.130;21.270;2023-08-06T06:30:51;98835.88;;;24.66
76009;BMP280;64700;52.130;21.270;2023-08-06T06:33:16;98842.28;;;24.68
76009;BMP280;64700;52.130;21.270;2023-08-06T06:35:41;98834.63;;;24.67
76009;BMP280;64700;52.130;21.270;2023-08-06T06:38:06;98830.63;;;24.68
76009;BMP280;64700;52.130;21.270;2023-08-06T06:40:32;98829.34;;;24.69
76009;BMP280;64700;52.130;21.270;2023-08-06T06:42:58;98825.16;;;24.68
76009;BMP280;64700;52.130;21.270;2023-08-06T06:45:23;98824.63;;;24.69
76009;BMP280;64700;52.130;21.270;2023-08-06T06:47:48;98823.88;;;24.69
76009;BMP280;64700;52.130;21.270;2023-08-06T06:50:13;98823.16;;;24.68
76009;BMP280;64700;52.130;21.270;2023-08-06T06:52:38;98808.22;;;24.69
76009;BMP280;64700;52.130;21.270;2023-08-06T06:55:04;98819.88;;;24.70
76009;BMP280;64700;52.130;21.270;2023-08-06T06:57:29;98813.91;;;24.71
76009;BMP280;64700;52.130;21.270;2023-08-06T06:59:54;98821.38;;;24.71
76009;BMP280;64700;52.130;21.270;2023-08-06T07:02:19;98832.47;;;24.73
76009;BMP280;64700;52.130;21.270;2023-08-06T07:04:45;98827.75;;;24.73
76009;BMP280;64700;52.130;21.270;2023-08-06T07:07:10;98812.63;;;24.72
76009;BMP280;64700;52.130;21.270;2023-08-06T07:09:35;98818.81;;;24.73
76009;BMP280;64700;52.130;21.270;2023-08-06T07:12:00;98805.88;;;24.73
76009;BMP280;64700;52.130;21.270;2023-08-06T07:14:26;98811.34;;;24.73
76009;BMP280;64700;52.130;21.270;2023-08-06T07:16:51;98809.34;;;24.74
76009;BMP280;64700;52.130;21.270;2023-08-06T07:19:17;98809.34;;;24.74
76009;BMP280;64700;52.130;21.270;2023-08-06T07:21:42;98803.88;;;24.74
76009;BMP280;64700;52.130;21.270;2023-08-06T07:24:07;98809.53;;;24.76
76009;BMP280;64700;52.130;21.270;2023-08-06T07:26:32;98810.28;;;24.76
76009;BMP280;64700;52.130;21.270;2023-08-06T07:28:57;98805.53;;;24.77
76009;BMP280;64700;52.130;21.270;2023-08-06T07:31:22;98809.78;;;24.78
76009;BMP280;64700;52.130;21.270;2023-08-06T07:33:48;98808.50;;;24.79
76009;BMP280;64700;52.130;21.270;2023-08-06T07:36:13;98802.28;;;24.78
76009;BMP280;64700;52.130;21.270;2023-08-06T07:38:39;98805.75;;;24.79
76009;BMP280;64700;52.130;21.270;2023-08-06T07:41:04;98799.56;;;24.78
76009;BMP280;64700;52.130;21.270;2023-08-06T07:43:30;98795.56;;;24.79
76009;BMP280;64700;52.130;21.270;2023-08-06T07:45:57;98799.25;;;24.82
76009;BMP280;64700;52.130;21.270;2023-08-06T07:48:22;98800.69;;;24.83
76009;BMP280;64700;52.130;21.270;2023-08-06T07:50:50;98787.00;;;24.83
76009;BMP280;64700;52.130;21.270;2023-08-06T07:53:18;98790.31;;;24.82
76009;BMP280;64700;52.130;21.270;2023-08-06T07:55:43;98795.44;;;24.85
76009;BMP280;64700;52.130;21.270;2023-08-06T07:58:08;98775.75;;;24.87
76009;BMP280;64700;52.130;21.270;2023-08-06T08:00:33;98778.88;;;24.91
76009;BMP280;64700;52.130;21.270;2023-08-06T08:02:59;98779.28;;;24.95
76009;BMP280;64700;52.130;21.270;2023-08-06T08:05:24;98781.69;;;24.98
76009;BMP280;64700;52.130;21.270;2023-08-06T08:07:49;98774.56;;;24.95
76009;BMP280;64700;52.130;21.270;2023-08-06T08:10:14;98775.81;;;24.94
76009;BMP280;64700;52.130;21.270;2023-08-06T08:12:41;98774.00;;;24.97
76009;BMP280;64700;52.130;21.270;2023-08-06T08:15:06;98773.25;;;24.96
76009;BMP280;64700;52.130;21.270;2023-08-06T08:17:31;98764.53;;;24.98
76009;BMP280;64700;52.130;21.270;2023-08-06T08:19:57;98765.28;;;24.98
76009;BMP280;64700;52.130;21.270;2023-08-06T08:22:22;98770.19;;;25.00
76009;BMP280;64700;52.130;21.270;2023-08-06T08:24:47;98764.72;;;25.00
76009;BMP280;64700;52.130;21.270;2023-08-06T08:27:12;98762.53;;;24.98
76009;BMP280;64700;52.130;21.270;2023-08-06T08:29:37;98782.59;;;25.01
76009;BMP280;64700;52.130;21.270;2023-08-06T08:32:02;98769.09;;;24.95
76009;BMP280;64700;52.130;21.270;2023-08-06T08:34:28;98770.34;;;24.94
76009;BMP280;64700;52.130;21.270;2023-08-06T08:36:53;98762.69;;;24.93
76009;BMP280;64700;52.130;21.270;2023-08-06T08:39:18;98765.41;;;24.93
76009;BMP280;64700;52.130;21.270;2023-08-06T08:41:43;98757.72;;;24.91
76009;BMP280;64700;52.130;21.270;2023-08-06T08:44:09;98765.94;;;24.91
76009;BMP280;64700;52.130;21.270;2023-08-06T08:46:35;98761.94;;;24.92
76009;BMP280;64700;52.130;21.270;2023-08-06T08:49:01;98753.00;;;24.92
76009;BMP280;64700;52.130;21.270;2023-08-06T08:51:27;98756.69;;;24.94
76009;BMP280;64700;52.130;21.270;2023-08-06T08:53:52;98745.75;;;24.94
76009;BMP280;64700;52.130;21.270;2023-08-06T08:56:18;98751.38;;;24.96
76009;BMP280;64700;52.130;21.270;2023-08-06T08:58:44;98742.66;;;24.98
76009;BMP280;64700;52.130;21.270;2023-08-06T09:01:09;98740.66;;;24.98
76009;BMP280;64700;52.130;21.270;2023-08-06T09:03:35;98738.66;;;24.99
76009;BMP280;64700;52.130;21.270;2023-08-06T09:06:01;98742.13;;;24.99
76009;BMP280;64700;52.130;21.270;2023-08-06T09:08:27;98745.06;;;25.01
76009;BMP280;64700;52.130;21.270;2023-08-06T09:10:54;98737.75;;;25.04
76009;BMP280;64700;52.130;21.270;2023-08-06T09:13:20;98737.03;;;25.03
76009;BMP280;64700;52.130;21.270;2023-08-06T09:15:46;98729.38;;;25.02
76009;BMP280;64700;52.130;21.270;2023-08-06T09:18:11;98734.84;;;25.02
76009;BMP280;64700;52.130;21.270;2023-08-06T09:20:37;98729.91;;;25.00
76009;BMP280;64700;52.130;21.270;2023-08-06T09:23:08;98728.47;;;24.99
76009;BMP280;64700;52.130;21.270;2023-08-06T09:25:36;98726.44;;;25.00
76009;BMP280;64700;52.130;21.270;2023-08-06T09:28:02;98718.22;;;25.00
76009;BMP280;64700;52.130;21.270;2023-08-06T09:30:29;98720.63;;;25.03
76009;BMP280;64700;52.130;21.270;2023-08-06T09:32:55;98718.81;;;25.06
76009;BMP280;64700;52.130;21.270;2023-08-06T09:35:21;98705.34;;;25.08
76009;BMP280;64700;52.130;21.270;2023-08-06T09:37:46;98716.09;;;25.06
76009;BMP280;64700;52.130;21.270;2023-08-06T09:42:48;98710.41;;;25.04
76009;BMP280;64700;52.130;21.270;2023-08-06T09:45:15;98713.75;;;25.10
76009;BMP280;64700;52.130;21.270;2023-08-06T09:47:41;98697.66;;;25.06
76009;BMP280;64700;52.130;21.270;2023-08-06T09:50:06;98696.63;;;25.09
76009;BMP280;64700;52.130;21.270;2023-08-06T09:52:39;98690.81;;;25.13
76009;BMP280;64700;52.130;21.270;2023-08-06T09:55:04;98692.06;;;25.12
76009;BMP280;64700;52.130;21.270;2023-08-06T09:57:30;98688.75;;;25.06
76009;BMP280;64700;52.130;21.270;2023-08-06T09:59:55;98694.06;;;25.11
76009;BMP280;64700;52.130;21.270;2023-08-06T10:02:20;98686.94;;;25.08
76009;BMP280;64700;52.130;21.270;2023-08-06T10:04:49;98674.41;;;25.13
76009;BMP280;64700;52.130;21.270;2023-08-06T10:07:15;98675.31;;;25.15
76009;BMP280;64700;52.130;21.270;2023-08-06T10:09:41;98668.94;;;25.13
76009;BMP280;64700;52.130;21.270;2023-08-06T10:12:06;98677.50;;;25.09
76009;BMP280;64700;52.130;21.270;2023-08-06T10:14:32;98660.91;;;25.15
76009;BMP280;64700;52.130;21.270;2023-08-06T10:16:58;98659.81;;;25.18
76009;BMP280;64700;52.130;21.270;2023-08-06T10:19:24;98656.34;;;25.17
76009;BMP280;64700;52.130;21.270;2023-08-06T10:22:11;98645.56;;;25.12
76009;BMP280;64700;52.130;21.270;2023-08-06T10:24:51;98651.22;;;25.14
76009;BMP280;64700;52.130;21.270;2023-08-06T10:27:33;98655.25;;;25.13
76009;BMP280;64700;52.130;21.270;2023-08-06T10:32:49;98641.75;;;25.15
76009;BMP280;64700;52.130;21.270;2023-08-06T10:38:19;98636.81;;;25.13
76009;BMP280;64700;52.130;21.270;2023-08-06T10:40:50;98637.16;;;25.10
76009;BMP280;64700;52.130;21.270;2023-08-06T10:43:34;98635.56;;;25.14
76009;BMP280;64700;52.130;21.270;2023-08-06T10:46:00;98633.56;;;25.15
76009;BMP280;64700;52.130;21.270;2023-08-06T10:48:29;98637.19;;;25.17
76009;BMP280;64700;52.130;21.270;2023-08-06T10:50:56;98626.09;;;25.15
76009;BMP280;64700;52.130;21.270;2023-08-06T10:53:21;98623.88;;;25.14
76009;BMP280;64700;52.130;21.270;2023-08-06T10:55:46;98608.75;;;25.20
76009;BMP280;64700;52.130;21.270;2023-08-06T10:58:11;98617.94;;;25.23
76009;BMP280;64700;52.130;21.270;2023-08-06T11:00:41;98610.22;;;25.21
76009;BMP280;64700;52.130;21.270;2023-08-06T11:03:06;98608.97;;;25.22
76009;BMP280;64700;52.130;21.270;2023-08-06T11:05:32;98600.78;;;25.30
76009;BMP280;64700;52.130;21.270;2023-08-06T11:07:57;98600.41;;;25.34
76009;BMP280;64700;52.130;21.270;2023-08-06T11:10:22;98588.38;;;25.29
76009;BMP280;64700;52.130;21.270;2023-08-06T11:12:48;98583.09;;;25.31
76009;BMP280;64700;52.130;21.270;2023-08-06T11:15:13;98585.81;;;25.31
76009;BMP280;64700;52.130;21.270;2023-08-06T11:17:39;98587.47;;;25.27
76009;BMP280;64700;52.130;21.270;2023-08-06T11:20:05;98583.28;;;25.26
76009;BMP280;64700;52.130;21.270;2023-08-06T11:22:30;98578.88;;;25.30
76009;BMP280;64700;52.130;21.270;2023-08-06T11:24:56;98572.53;;;25.35
76009;BMP280;64700;52.130;21.270;2023-08-06T11:27:21;98578.00;;;25.35
76009;BMP280;64700;52.130;21.270;2023-08-06T11:29:50;98566.88;;;25.33
76009;BMP280;64700;52.130;21.270;2023-08-06T11:32:15;98573.25;;;25.28
76009;BMP280;64700;52.130;21.270;2023-08-06T11:34:40;98573.06;;;25.26
76009;BMP280;64700;52.130;21.270;2023-08-06T11:37:06;98554.09;;;25.28
76009;BMP280;64700;52.130;21.270;2023-08-06T11:39:32;98553.34;;;25.28
76009;BMP280;64700;52.130;21.270;2023-08-06T11:41:57;98553.72;;;25.24
76009;BMP280;64700;52.130;21.270;2023-08-06T11:44:25;98551.72;;;25.24
76009;BMP280;64700;52.130;21.270;2023-08-06T11:46:54;98558.47;;;25.23
76009;BMP280;64700;52.130;21.270;2023-08-06T11:49:21;98554.44;;;25.24
76009;BMP280;64700;52.130;21.270;2023-08-06T11:51:47;98556.66;;;25.26
76009;BMP280;64700;52.130;21.270;2023-08-06T11:54:12;98550.97;;;25.24
76009;BMP280;64700;52.130;21.270;2023-08-06T11:56:38;98548.97;;;25.24
76009;BMP280;64700;52.130;21.270;2023-08-06T11:59:03;98533.84;;;25.23
76009;BMP280;64700;52.130;21.270;2023-08-06T12:01:28;98523.63;;;25.24
76009;BMP280;64700;52.130;21.270;2023-08-06T12:03:58;98522.38;;;25.25
76009;BMP280;64700;52.130;21.270;2023-08-06T12:06:26;98541.69;;;25.27
76009;BMP280;64700;52.130;21.270;2023-08-06T12:08:51;98551.19;;;25.26
76009;BMP280;64700;52.130;21.270;2023-08-06T12:11:17;98550.44;;;25.26
76009;BMP280;64700;52.130;21.270;2023-08-06T12:13:42;98538.78;;;25.25
76009;BMP280;64700;52.130;21.270;2023-08-06T12:16:07;98532.78;;;25.27
76009;BMP280;64700;52.130;21.270;2023-08-06T12:18:32;98540.97;;;25.27
76009;BMP280;64700;52.130;21.270;2023-08-06T12:20:57;98528.00;;;25.27
76009;BMP280;64700;52.130;21.270;2023-08-06T12:23:23;98535.50;;;25.27
76009;BMP280;64700;52.130;21.270;2023-08-06T12:25:48;98536.78;;;25.26
76009;BMP280;64700;52.130;21.270;2023-08-06T12:28:14;98539.50;;;25.26
76009;BMP280;64700;52.130;21.270;2023-08-06T12:30:39;98551.91;;;25.27
76009;BMP280;64700;52.130;21.270;2023-08-06T12:33:09;98554.81;;;25.29
76009;BMP280;64700;52.130;21.270;2023-08-06T12:35:37;98546.25;;;25.32
76009;BMP280;64700;52.130;21.270;2023-08-06T12:38:03;98532.03;;;25.34
76009;BMP280;64700;52.130;21.270;2023-08-06T12:40:28;98525.63;;;25.31
76009;BMP280;64700;52.130;21.270;2023-08-06T12:42:53;98521.44;;;25.30
76009;BMP280;64700;52.130;21.270;2023-08-06T12:45:18;98529.66;;;25.30
76009;BMP280;64700;52.130;21.270;2023-08-06T12:47:46;98526.91;;;25.30
76009;BMP280;64700;52.130;21.270;2023-08-06T12:50:11;98518.69;;;25.30
76009;BMP280;64700;52.130;21.270;2023-08-06T12:52:36;98522.00;;;25.29
76009;BMP280;64700;52.130;21.270;2023-08-06T12:55:01;98535.13;;;25.30
76009;BMP280;64700;52.130;21.270;2023-08-06T12:57:26;98539.16;;;25.29
76009;BMP280;64700;52.130;21.270;2023-08-06T12:59:54;98532.94;;;25.29
76009;BMP280;64700;52.130;21.270;2023-08-06T13:02:19;98544.63;;;25.29
76009;BMP280;64700;52.130;21.270;2023-08-06T13:04:46;98587.66;;;25.36
76009;BMP280;64700;52.130;21.270;2023-08-06T13:07:11;98584.59;;;25.40
76009;BMP280;64700;52.130;21.270;2023-08-06T13:09:36;98557.03;;;25.38
76009;BMP280;64700;52.130;21.270;2023-08-06T13:12:02;98570.56;;;25.43
76009;BMP280;64700;52.130;21.270;2023-08-06T13:14:30;98566.00;;;25.46
76009;BMP280;64700;52.130;21.270;2023-08-06T13:16:56;98548.31;;;25.47
76009;BMP280;64700;52.130;21.270;2023-08-06T13:19:21;98534.63;;;25.47
76009;BMP280;64700;52.130;21.270;2023-08-06T13:24:11;98543.19;;;25.43
76009;BMP280;64700;52.130;21.270;2023-08-06T13:26:36;98544.47;;;25.42
76009;BMP280;64700;52.130;21.270;2023-08-06T13:29:01;98555.56;;;25.44
76009;BMP280;64700;52.130;21.270;2023-08-06T13:31:27;98551.56;;;25.45
76009;BMP280;64700;52.130;21.270;2023-08-06T13:33:54;98549.38;;;25.44
76009;BMP280;64700;52.130;21.270;2023-08-06T13:36:20;98537.88;;;25.45
76009;BMP280;64700;52.130;21.270;2023-08-06T13:38:45;98542.84;;;25.47
76009;BMP280;64700;52.130;21.270;2023-08-06T13:41:10;98547.00;;;25.48
76009;BMP280;64700;52.130;21.270;2023-08-06T13:43:36;98540.09;;;25.47
76009;BMP280;64700;52.130;21.270;2023-08-06T13:46:01;98550.47;;;25.48
76009;BMP280;64700;52.130;21.270;2023-08-06T13:48:26;98550.47;;;25.48
76009;BMP280;64700;52.130;21.270;2023-08-06T13:50:52;98545.56;;;25.47
76009;BMP280;64700;52.130;21.270;2023-08-06T13:53:17;98548.31;;;25.47
76009;BMP280;64700;52.130;21.270;2023-08-06T13:55:42;98540.09;;;25.47
76009;BMP280;64700;52.130;21.270;2023-08-06T13:58:07;98548.31;;;25.47
76009;BMP280;64700;52.130;21.270;2023-08-06T14:00:33;98546.84;;;25.46
76009;BMP280;64700;52.130;21.270;2023-08-06T14:02:58;98557.03;;;25.45